Time;durP1;ratioP1;P1;durP2;ratioP2;P2;SDS_P1;SDS_P2;PMS_P1;PMS_P2;Temp;Humidity;BMP_temperature;BMP_pressure;BME280_temperature;BME280_humidity;BME280_pressure;Samples;Min_cycle;Max_cycle;Signal;HPM_P1;HPM_P2
2022/02/08 00:00:04;;;;;;;26.70;4.60;;;7.90;99.90;;;;;;5096768;28;20201;-84
2022/02/08 00:02:42;;;;;;;24.37;3.80;;;7.90;99.90;;;;;;5096634;28;20204;-86
2022/02/08 00:05:14;;;;;;;23.83;4.30;;;7.90;99.90;;;;;;5094595;28;20255;-84
2022/02/08 00:07:46;;;;;;;21.17;3.90;;;7.90;99.90;;;;;;5095792;28;20205;-85
2022/02/08 00:10:12;;;;;;;15.80;3.57;;;8.00;99.90;;;;;;5096985;28;20643;-85
2022/02/08 00:12:40;;;;;;;19.23;3.67;;;8.00;99.90;;;;;;5098759;28;20268;-86
2022/02/08 00:15:09;;;;;;;15.93;3.90;;;8.00;99.90;;;;;;5099744;28;20672;-85
2022/02/08 00:17:38;;;;;;;18.30;3.53;;;8.00;99.90;;;;;;5099018;28;20193;-85
2022/02/08 00:20:08;;;;;;;13.07;3.20;;;8.10;99.90;;;;;;5100199;28;20208;-85
2022/02/08 00:22:40;;;;;;;15.20;3.10;;;8.10;99.90;;;;;;5098391;28;20205;-85
2022/02/08 00:25:08;;;;;;;18.13;3.07;;;8.10;99.90;;;;;;5097078;28;20205;-81
2022/02/08 00:27:35;;;;;;;13.53;3.10;;;8.00;99.90;;;;;;5096756;28;20189;-83
2022/02/08 00:30:05;;;;;;;18.87;3.90;;;8.00;99.90;;;;;;5096552;28;20235;-85
2022/02/08 00:32:34;;;;;;;14.27;3.53;;;8.10;99.90;;;;;;5097133;28;20214;-82
2022/02/08 00:35:00;;;;;;;15.33;3.67;;;8.10;99.90;;;;;;5095987;28;20208;-83
2022/02/08 00:37:28;;;;;;;12.57;3.40;;;8.10;99.90;;;;;;5095611;28;20197;-81
2022/02/08 00:39:55;;;;;;;14.57;3.47;;;8.00;99.90;;;;;;5096582;28;20193;-86
2022/02/08 00:42:26;;;;;;;10.83;3.33;;;8.00;99.90;;;;;;5096563;28;20224;-86
2022/02/08 00:45:04;;;;;;;15.37;4.07;;;8.10;99.90;;;;;;5096663;28;20201;-84
2022/02/08 00:47:38;;;;;;;15.10;3.80;;;8.10;99.90;;;;;;5096407;28;20192;-83
2022/02/08 00:50:08;;;;;;;17.57;3.83;;;8.20;99.90;;;;;;5097052;28;20304;-83
2022/02/08 00:52:42;;;;;;;15.47;3.37;;;8.10;99.90;;;;;;5096447;28;20194;-80
2022/02/08 00:55:13;;;;;;;17.33;4.33;;;8.10;99.90;;;;;;5097517;28;20215;-80
2022/02/08 00:57:41;;;;;;;17.47;3.70;;;8.20;99.90;;;;;;5096449;28;20208;-79
2022/02/08 01:00:10;;;;;;;17.10;3.87;;;8.10;99.90;;;;;;5097165;28;20582;-81
2022/02/08 01:02:38;;;;;;;13.23;3.30;;;8.10;99.90;;;;;;5096262;28;20208;-85
2022/02/08 01:05:09;;;;;;;16.42;4.72;;;8.10;99.90;;;;;;5094297;28;20422;-83
2022/02/08 01:07:36;;;;;;;17.17;3.97;;;8.20;99.90;;;;;;5095072;28;20537;-81
2022/02/08 01:10:05;;;;;;;16.73;3.30;;;8.20;99.90;;;;;;5094225;28;20596;-81
2022/02/08 01:12:35;;;;;;;16.37;3.50;;;8.30;99.90;;;;;;5094292;28;20230;-87
2022/02/08 01:15:02;;;;;;;13.17;3.47;;;8.20;99.90;;;;;;5093781;28;20628;-86
2022/02/08 01:17:30;;;;;;;14.57;3.80;;;8.30;99.90;;;;;;5094121;28;20205;-81
2022/02/08 01:20:06;;;;;;;21.00;3.77;;;8.30;99.90;;;;;;5094638;28;20259;-80
2022/02/08 01:22:36;;;;;;;13.83;4.77;;;8.20;99.90;;;;;;5095149;28;20201;-80
2022/02/08 01:25:15;;;;;;;17.73;4.60;;;8.20;99.90;;;;;;5094768;28;20185;-85
2022/02/08 01:27:47;;;;;;;18.30;4.80;;;8.10;99.90;;;;;;5093994;28;20192;-83
2022/02/08 01:30:28;;;;;;;16.60;4.10;;;8.10;99.90;;;;;;5094051;28;20224;-84
2022/02/08 01:33:16;;;;;;;26.37;5.33;;;8.10;99.90;;;;;;5094097;28;20212;-81
2022/02/08 01:35:57;;;;;;;25.87;5.10;;;8.00;99.90;;;;;;5096161;28;20189;-80
2022/02/08 01:38:28;;;;;;;17.07;4.47;;;8.00;99.90;;;;;;5095651;28;20197;-80
2022/02/08 01:41:20;;;;;;;25.90;5.50;;;8.00;99.90;;;;;;5095663;28;20652;-85
2022/02/08 01:44:15;;;;;;;15.17;4.67;;;8.00;99.90;;;;;;5095213;28;20281;-79
2022/02/08 01:49:35;;;;;;;23.93;5.03;;;7.80;99.90;;;;;;5095271;28;20721;-80
2022/02/08 01:52:07;;;;;;;18.87;5.17;;;7.80;99.90;;;;;;5096713;28;20239;-82
2022/02/08 01:54:34;;;;;;;13.87;4.60;;;7.80;99.90;;;;;;5096151;28;20239;-83
2022/02/08 01:57:02;;;;;;;28.37;5.80;;;7.80;99.90;;;;;;5094966;28;20686;-82
2022/02/08 01:59:30;;;;;;;19.57;5.33;;;7.80;99.90;;;;;;5094124;28;20499;-81
2022/02/08 02:01:59;;;;;;;24.53;4.73;;;7.90;99.90;;;;;;5094670;28;20193;-87
2022/02/08 02:04:27;;;;;;;17.27;4.53;;;7.90;99.90;;;;;;5096515;28;20238;-81
2022/02/08 02:06:55;;;;;;;16.60;4.67;;;7.80;99.90;;;;;;5095874;28;20198;-79
2022/02/08 02:09:24;;;;;;;21.00;5.17;;;7.80;99.90;;;;;;5095819;28;20287;-80
2022/02/08 02:11:54;;;;;;;15.97;4.60;;;7.80;99.90;;;;;;5095207;28;20213;-80
2022/02/08 02:14:24;;;;;;;14.77;4.63;;;7.80;99.90;;;;;;5096372;28;20652;-84
2022/02/08 02:16:57;;;;;;;22.67;4.80;;;7.80;99.90;;;;;;5095399;28;20208;-81
2022/02/08 02:19:27;;;;;;;13.73;4.97;;;7.90;99.90;;;;;;5094402;28;20211;-82
2022/02/08 02:21:55;;;;;;;13.90;5.00;;;7.90;99.90;;;;;;5096143;28;20346;-82
2022/02/08 02:24:26;;;;;;;17.70;5.40;;;8.00;99.90;;;;;;5098020;28;20197;-81
2022/02/08 02:26:56;;;;;;;17.43;5.43;;;8.10;99.90;;;;;;5097581;28;20192;-82
2022/02/08 02:29:30;;;;;;;14.07;5.00;;;8.10;99.90;;;;;;5098127;28;20225;-86
2022/02/08 02:31:58;;;;;;;23.73;5.67;;;8.10;99.90;;;;;;5097567;28;20848;-84
2022/02/08 02:34:25;;;;;;;14.80;5.53;;;8.20;99.90;;;;;;5081346;28;20347;-87
2022/02/08 02:36:55;;;;;;;24.73;6.20;;;8.20;99.90;;;;;;5077041;28;20289;-83
2022/02/08 02:39:24;;;;;;;14.27;6.00;;;8.20;99.90;;;;;;5076390;28;20764;-80
2022/02/08 02:41:53;;;;;;;12.30;5.20;;;8.30;99.90;;;;;;5076566;28;20210;-80
2022/02/08 02:44:23;;;;;;;18.40;6.23;;;8.30;99.90;;;;;;5077089;28;20194;-80
2022/02/08 02:46:50;;;;;;;13.27;6.03;;;8.20;99.90;;;;;;5077439;28;20230;-80
2022/02/08 02:49:19;;;;;;;21.40;6.40;;;8.20;99.90;;;;;;5076530;28;20654;-85
2022/02/08 02:51:45;;;;;;;17.07;7.17;;;8.30;99.90;;;;;;5077244;28;20278;-85
2022/02/08 02:54:15;;;;;;;19.90;7.30;;;8.30;99.90;;;;;;5076785;28;20190;-81
2022/02/08 02:56:42;;;;;;;22.10;6.67;;;8.30;99.90;;;;;;5076769;28;20665;-86
2022/02/08 02:59:11;;;;;;;22.97;7.97;;;8.30;99.90;;;;;;5074946;28;20198;-81
2022/02/08 03:01:58;;;;;;;21.10;7.00;;;8.40;99.90;;;;;;5079014;28;20630;-83
2022/02/08 03:04:34;;;;;;;26.93;7.67;;;8.40;99.90;;;;;;5096256;28;20563;-84
2022/02/08 03:21:08;;;;;;;22.90;9.70;;;8.50;99.90;;;;;;5095851;28;20773;-83
2022/02/08 03:23:35;;;;;;;23.93;10.10;;;8.60;99.90;;;;;;5096162;28;20189;-86
2022/02/08 03:26:02;;;;;;;25.13;9.83;;;8.50;99.90;;;;;;5095898;28;20574;-83
2022/02/08 03:28:30;;;;;;;21.60;9.93;;;8.50;99.90;;;;;;5094354;28;20225;-86
2022/02/08 03:30:58;;;;;;;25.83;9.90;;;8.50;99.90;;;;;;5095544;28;20239;-83
2022/02/08 03:33:27;;;;;;;22.10;9.98;;;8.50;99.90;;;;;;5095024;28;20434;-84
2022/02/08 03:36:00;;;;;;;18.83;11.00;;;8.50;99.90;;;;;;5095492;28;20223;-82
2022/02/08 03:38:33;;;;;;;25.53;12.23;;;8.60;99.90;;;;;;5095625;28;20204;-86
2022/02/08 03:41:01;;;;;;;19.90;11.47;;;8.60;99.90;;;;;;5095194;28;20321;-86
2022/02/08 03:43:32;;;;;;;22.87;11.33;;;8.50;99.90;;;;;;5095231;28;20272;-87
2022/02/08 03:46:05;;;;;;;19.50;10.07;;;8.50;99.90;;;;;;5095296;28;20212;-84
2022/02/08 03:48:34;;;;;;;16.17;10.17;;;8.50;99.90;;;;;;5095181;28;20200;-88
2022/02/08 03:51:12;;;;;;;18.57;10.67;;;8.50;99.90;;;;;;5095091;28;20307;-83
2022/02/08 03:53:44;;;;;;;18.67;9.67;;;8.50;99.90;;;;;;5095089;28;20226;-87
2022/02/08 03:56:11;;;;;;;18.00;9.90;;;8.50;99.90;;;;;;5095427;28;20197;-83
2022/02/08 03:58:40;;;;;;;23.33;10.03;;;8.50;99.90;;;;;;5095232;28;20186;-81
2022/02/08 04:04:09;;;;;;;17.27;9.43;;;8.60;99.90;;;;;;5042662;28;20324;-82
2022/02/08 04:06:36;;;;;;;19.87;10.30;;;8.50;99.90;;;;;;5074789;28;20212;-81
2022/02/08 04:09:07;;;;;;;23.93;9.70;;;8.60;99.90;;;;;;5074747;28;20484;-80
2022/02/08 04:11:38;;;;;;;19.97;9.27;;;8.60;99.90;;;;;;5074411;28;20208;-83
2022/02/08 04:14:22;;;;;;;16.83;9.10;;;8.50;99.90;;;;;;5075116;28;20190;-82
2022/02/08 04:16:51;;;;;;;15.60;8.40;;;8.50;99.90;;;;;;5075704;28;20201;-84
2022/02/08 04:19:23;;;;;;;10.67;7.07;;;8.60;99.90;;;;;;5075529;28;20210;-80
2022/02/08 04:33:11;;;;;;;6.20;5.10;;;8.80;99.90;;;;;;5075012;28;20323;-90
2022/02/08 04:35:46;;;;;;;9.33;5.73;;;8.90;99.90;;;;;;5075215;28;20225;-78
2022/02/08 04:38:33;;;;;;;12.80;5.90;;;8.90;99.90;;;;;;5074964;28;20297;-78
2022/02/08 04:41:04;;;;;;;8.70;5.67;;;8.90;99.90;;;;;;5074524;28;20209;-78
2022/02/08 04:43:40;;;;;;;8.20;5.60;;;8.90;99.90;;;;;;5073156;28;20288;-81
2022/02/08 04:46:17;;;;;;;12.33;6.00;;;8.90;99.90;;;;;;5074410;28;20201;-84
2022/02/08 04:48:51;;;;;;;11.40;5.37;;;9.00;99.90;;;;;;5074839;28;20212;-83
2022/02/08 04:51:26;;;;;;;10.52;6.63;;;9.00;99.90;;;;;;5074443;28;20456;-82
2022/02/08 04:54:02;;;;;;;10.53;5.90;;;9.10;99.90;;;;;;5075262;28;20205;-78
2022/02/08 04:56:40;;;;;;;8.43;5.50;;;9.10;99.90;;;;;;5075029;28;20603;-78
2022/02/08 04:59:21;;;;;;;14.73;5.40;;;9.00;99.90;;;;;;5074952;28;20202;-79
2022/02/08 05:27:06;;;;;;;8.20;3.97;;;9.20;99.90;;;;;;5073917;28;20213;-85
2022/02/08 05:34:05;;;;;;;7.60;4.70;;;9.30;99.90;;;;;;5072891;28;20428;-86
2022/02/08 05:35:30;;;;;;;5.40;3.87;;;9.30;99.90;;;;;;5073413;28;20197;-85
2022/02/08 05:43:50;;;;;;;8.20;3.53;;;9.50;99.90;;;;;;5074923;28;20247;-85
2022/02/08 05:49:06;;;;;;;6.07;3.07;;;9.40;99.90;;;;;;5073829;28;20194;-85
2022/02/08 05:52:09;;;;;;;6.27;3.27;;;9.50;99.90;;;;;;5073449;28;20360;-84
2022/02/08 05:54:39;;;;;;;6.90;3.00;;;9.50;99.90;;;;;;5073384;28;20205;-84
2022/02/08 05:57:10;;;;;;;6.90;3.30;;;9.50;99.90;;;;;;5075798;28;20621;-86
2022/02/08 05:59:37;;;;;;;5.47;3.23;;;9.50;99.90;;;;;;5077545;28;20206;-87
2022/02/08 06:02:06;;;;;;;5.90;3.07;;;9.50;99.90;;;;;;5093103;28;20545;-83
2022/02/08 06:04:36;;;;;;;5.43;3.60;;;9.50;99.90;;;;;;5096677;28;20205;-85
2022/02/08 06:07:05;;;;;;;6.43;4.40;;;9.60;99.90;;;;;;5095685;28;20514;-83
2022/02/08 06:09:33;;;;;;;7.00;4.20;;;9.70;99.90;;;;;;5096951;28;20676;-84
2022/02/08 06:12:01;;;;;;;5.87;3.97;;;9.60;99.90;;;;;;5096767;28;20225;-85
2022/02/08 06:14:35;;;;;;;8.90;4.03;;;9.60;99.90;;;;;;5096785;28;20570;-83
2022/02/08 06:17:04;;;;;;;8.03;4.17;;;9.60;99.90;;;;;;5097247;28;20205;-81
2022/02/08 06:19:31;;;;;;;9.30;4.00;;;9.60;99.90;;;;;;5096946;28;20658;-85
2022/02/08 06:21:58;;;;;;;9.40;4.03;;;9.60;99.90;;;;;;5096833;28;20213;-81
2022/02/08 06:24:26;;;;;;;7.37;3.50;;;9.60;99.90;;;;;;5097088;28;20201;-84
2022/02/08 06:26:55;;;;;;;6.10;3.30;;;9.50;99.90;;;;;;5097155;28;20193;-82
2022/02/08 06:29:29;;;;;;;7.80;3.43;;;9.60;99.90;;;;;;5097457;28;20217;-81
2022/02/08 06:32:01;;;;;;;6.47;3.23;;;9.60;99.90;;;;;;5096629;28;20216;-83
2022/02/08 06:34:31;;;;;;;7.17;3.27;;;9.70;99.90;;;;;;5096550;28;20200;-82
2022/02/08 06:37:04;;;;;;;7.77;2.67;;;9.60;99.90;;;;;;5097131;28;20548;-84
2022/02/08 06:39:36;;;;;;;6.17;2.53;;;9.60;99.90;;;;;;5097148;28;20636;-83
2022/02/08 06:42:04;;;;;;;3.60;2.20;;;9.50;99.90;;;;;;5097275;28;20217;-83
2022/02/08 06:44:38;;;;;;;6.90;2.43;;;9.50;99.90;;;;;;5097091;28;20193;-82
2022/02/08 06:47:07;;;;;;;7.20;2.47;;;9.50;99.90;;;;;;5096921;28;20554;-83
2022/02/08 06:49:36;;;;;;;7.30;2.30;;;9.60;99.90;;;;;;5096538;28;20199;-83
2022/02/08 06:52:05;;;;;;;9.73;2.10;;;9.60;99.90;;;;;;5096662;28;20236;-86
2022/02/08 06:54:32;;;;;;;7.20;2.43;;;9.60;99.90;;;;;;5096757;28;20205;-81
2022/02/08 06:56:59;;;;;;;5.40;1.77;;;9.70;99.90;;;;;;5096655;28;20197;-87
2022/02/08 06:59:37;;;;;;;3.77;1.70;;;9.60;99.90;;;;;;5096372;28;20662;-85
2022/02/08 07:02:06;;;;;;;6.60;1.83;;;9.80;99.90;;;;;;5096322;28;20193;-82
2022/02/08 07:04:33;;;;;;;5.37;1.70;;;9.80;99.90;;;;;;5095048;28;20774;-85
2022/02/08 07:07:02;;;;;;;6.70;1.87;;;9.80;99.90;;;;;;5095725;28;20212;-84
2022/02/08 07:09:28;;;;;;;7.47;1.60;;;9.90;99.90;;;;;;5095418;28;20198;-84
2022/02/08 07:11:58;;;;;;;6.87;1.83;;;9.90;99.90;;;;;;5095777;28;20252;-81
2022/02/08 07:14:29;;;;;;;7.57;1.80;;;9.90;99.90;;;;;;5095578;28;20229;-80
2022/02/08 07:17:03;;;;;;;4.90;1.57;;;9.80;99.90;;;;;;5095047;28;20223;-84
2022/02/08 07:19:33;;;;;;;4.80;2.13;;;9.80;99.90;;;;;;5096022;28;20202;-84
2022/02/08 07:22:00;;;;;;;6.40;1.73;;;9.80;99.90;;;;;;5099774;28;20185;-83
2022/02/08 07:24:27;;;;;;;6.43;1.40;;;10.00;99.90;;;;;;5095753;28;20201;-85
2022/02/08 07:27:00;;;;;;;4.17;1.37;;;9.90;99.90;;;;;;5096536;28;20235;-81
2022/02/08 07:29:32;;;;;;;9.43;1.80;;;9.90;99.90;;;;;;5096388;28;20231;-85
2022/02/08 07:32:02;;;;;;;7.20;1.60;;;9.90;99.90;;;;;;5096258;28;20707;-85
2022/02/08 07:34:39;;;;;;;4.93;1.47;;;9.90;99.90;;;;;;5097057;28;20213;-82
2022/02/08 07:37:14;;;;;;;7.53;1.53;;;9.90;99.90;;;;;;5096004;28;20288;-88
2022/02/08 07:39:48;;;;;;;3.67;1.30;;;10.00;99.90;;;;;;5103984;28;20572;-83
2022/02/08 07:42:15;;;;;;;4.07;1.50;;;10.00;99.90;;;;;;5103800;28;20214;-86
2022/02/08 07:44:50;;;;;;;7.20;1.20;;;10.00;99.90;;;;;;5101444;28;20202;-84
2022/02/08 07:47:17;;;;;;;3.50;1.30;;;10.00;99.90;;;;;;5100253;28;20201;-83
2022/02/08 07:49:44;;;;;;;4.93;1.47;;;10.00;99.90;;;;;;5095247;28;20649;-79
2022/02/08 07:52:14;;;;;;;7.17;1.37;;;10.00;99.90;;;;;;5095282;28;20703;-80
2022/02/08 07:54:41;;;;;;;6.00;1.53;;;10.10;99.90;;;;;;5094801;28;20262;-82
2022/02/08 07:57:08;;;;;;;5.07;1.97;;;10.10;99.90;;;;;;5095041;28;20193;-82
2022/02/08 07:59:35;;;;;;;3.60;1.73;;;10.10;99.90;;;;;;5094934;28;20205;-80
2022/02/08 08:02:03;;;;;;;7.73;1.73;;;10.10;99.90;;;;;;5094124;28;20208;-87
2022/02/08 08:04:32;;;;;;;7.37;1.90;;;10.10;99.90;;;;;;5093950;28;20204;-80
2022/02/08 08:07:00;;;;;;;8.83;2.13;;;10.10;99.90;;;;;;5094679;28;20185;-81
2022/02/08 08:09:29;;;;;;;4.90;1.30;;;10.10;99.90;;;;;;5094237;28;20608;-83
2022/02/08 08:11:56;;;;;;;6.67;1.57;;;10.20;99.90;;;;;;5095952;28;20275;-84
2022/02/08 08:14:26;;;;;;;3.27;1.60;;;10.20;99.90;;;;;;5096125;28;20209;-85
2022/02/08 08:16:58;;;;;;;4.70;1.43;;;10.20;99.90;;;;;;5093606;28;20200;-83
2022/02/08 08:19:36;;;;;;;7.43;1.50;;;10.20;99.90;;;;;;5096394;28;20221;-82
2022/02/08 08:22:05;;;;;;;8.63;1.80;;;10.30;99.90;;;;;;5097103;28;20553;-82
2022/02/08 08:24:34;;;;;;;5.83;1.70;;;10.30;99.90;;;;;;5096924;28;20264;-83
2022/02/08 08:27:02;;;;;;;4.93;1.10;;;10.30;99.90;;;;;;5096739;28;20205;-84
2022/02/08 08:29:29;;;;;;;5.13;1.67;;;10.40;99.90;;;;;;5095233;28;20236;-81
2022/02/08 08:31:57;;;;;;;7.00;1.50;;;10.30;99.90;;;;;;5094833;28;20251;-82
2022/02/08 08:34:23;;;;;;;6.43;1.00;;;10.40;99.90;;;;;;5094801;28;20247;-83
2022/02/08 08:36:51;;;;;;;8.38;2.05;;;10.40;99.90;;;;;;5093397;28;20754;-80
2022/02/08 08:39:22;;;;;;;5.80;1.70;;;10.40;99.90;;;;;;5093645;28;20265;-80
2022/02/08 08:42:05;;;;;;;17.43;2.27;;;10.40;99.90;;;;;;5093785;28;20314;-83
2022/02/08 08:50:07;;;;;;;4.57;1.23;;;10.40;99.90;;;;;;5093804;28;20196;-78
2022/02/08 08:52:40;;;;;;;3.33;1.30;;;10.40;99.90;;;;;;5094253;28;20311;-78
2022/02/08 08:55:09;;;;;;;9.33;1.90;;;10.40;99.90;;;;;;5094328;28;20295;-83
2022/02/08 08:57:44;;;;;;;9.57;1.70;;;10.40;99.90;;;;;;5094654;28;20200;-78
2022/02/08 09:00:13;;;;;;;6.53;1.73;;;10.40;99.90;;;;;;5093969;28;20204;-78
2022/02/08 09:02:40;;;;;;;6.53;1.60;;;10.40;99.90;;;;;;5094288;28;20213;-80
2022/02/08 09:05:13;;;;;;;4.77;1.50;;;10.40;99.90;;;;;;5094651;28;20201;-82
2022/02/08 09:07:42;;;;;;;4.67;1.47;;;10.30;99.90;;;;;;5094603;28;20223;-80
2022/02/08 09:10:12;;;;;;;4.97;1.40;;;10.40;99.90;;;;;;5093151;28;20227;-85
2022/02/08 09:12:59;;;;;;;4.57;1.47;;;10.40;99.90;;;;;;5093429;28;20722;-80
2022/02/08 09:15:48;;;;;;;6.57;2.33;;;10.30;99.90;;;;;;5092715;28;20631;-79
2022/02/08 09:21:43;;;;;;;6.37;1.50;;;10.30;99.90;;;;;;5037020;28;20208;-84
2022/02/08 09:29:48;;;;;;;7.53;1.50;;;10.30;99.90;;;;;;5092259;28;20200;-87
2022/02/08 09:32:20;;;;;;;5.73;1.60;;;10.40;99.90;;;;;;5092804;28;20252;-89
2022/02/08 09:34:49;;;;;;;3.53;1.30;;;10.40;99.90;;;;;;5093649;28;20538;-80
2022/02/08 09:37:17;;;;;;;6.80;1.70;;;10.50;99.90;;;;;;5092694;28;20552;-83
2022/02/08 09:39:50;;;;;;;5.93;1.57;;;10.50;99.90;;;;;;5092926;28;20201;-80
2022/02/08 09:42:17;;;;;;;3.37;1.37;;;10.50;99.90;;;;;;5092282;28;20652;-80
2022/02/08 09:44:44;;;;;;;5.03;1.47;;;10.60;99.90;;;;;;5093564;28;20284;-79
2022/02/08 09:47:15;;;;;;;5.40;1.70;;;10.50;99.90;;;;;;5093103;28;20205;-78
2022/02/08 09:49:52;;;;;;;5.77;1.80;;;10.50;99.90;;;;;;5093163;28;20585;-80
2022/02/08 09:52:21;;;;;;;2.53;1.50;;;10.50;99.90;;;;;;5092660;28;20307;-87
2022/02/08 09:54:48;;;;;;;8.47;1.77;;;10.40;99.90;;;;;;5093635;28;20237;-79
2022/02/08 09:57:17;;;;;;;8.40;2.00;;;10.50;99.90;;;;;;5092896;28;20212;-84
2022/02/08 09:59:44;;;;;;;10.07;2.00;;;10.40;99.90;;;;;;5092828;28;20258;-79
2022/02/08 10:02:11;;;;;;;6.57;1.63;;;10.50;99.90;;;;;;5093058;28;20213;-78
2022/02/08 10:04:40;;;;;;;5.93;1.53;;;10.70;99.90;;;;;;5093349;28;20194;-85
2022/02/08 10:07:14;;;;;;;6.30;1.60;;;10.60;99.90;;;;;;5093098;28;20201;-83
2022/02/08 10:09:42;;;;;;;3.50;1.30;;;10.70;99.90;;;;;;5092700;28;20234;-79
2022/02/08 10:12:10;;;;;;;6.97;1.60;;;10.80;99.90;;;;;;5092379;28;20256;-82
2022/02/08 10:14:55;;;;;;;3.90;1.50;;;10.70;99.90;;;;;;5092270;28;20589;-78
2022/02/08 10:22:57;;;;;;;5.00;1.70;;;10.90;99.90;;;;;;5081444;28;20203;-84
2022/02/08 10:25:36;;;;;;;6.43;2.10;;;10.90;99.90;;;;;;5092453;28;20629;-78
2022/02/08 10:28:11;;;;;;;4.30;1.27;;;11.00;99.90;;;;;;5092516;28;20221;-86
2022/02/08 10:31:02;;;;;;;9.20;1.83;;;10.90;99.90;;;;;;5092398;28;20199;-81
2022/02/08 10:39:07;;;;;;;6.80;1.60;;;10.90;99.90;;;;;;5085299;28;20197;-85
2022/02/08 10:41:36;;;;;;;5.20;1.50;;;11.00;99.90;;;;;;5092332;28;20195;-84
2022/02/08 10:44:05;;;;;;;4.80;1.50;;;11.00;99.90;;;;;;5094021;28;20208;-83
2022/02/08 10:46:37;;;;;;;8.87;2.33;;;11.00;99.90;;;;;;5096861;28;20191;-86
2022/02/08 10:49:07;;;;;;;4.07;1.50;;;11.10;99.90;;;;;;5096330;28;20653;-87
2022/02/08 10:51:39;;;;;;;4.00;1.50;;;11.00;99.90;;;;;;5096637;28;20204;-83
2022/02/08 10:54:13;;;;;;;4.67;1.20;;;11.00;99.90;;;;;;5096048;28;20737;-87
2022/02/08 10:56:45;;;;;;;9.80;1.60;;;11.00;99.90;;;;;;5097696;28;20262;-83
2022/02/08 10:59:22;;;;;;;4.60;1.40;;;11.20;99.90;;;;;;5096299;28;20194;-80
2022/02/08 11:02:00;;;;;;;7.47;1.30;;;11.00;99.90;;;;;;5095911;28;20196;-82
2022/02/08 11:04:45;;;;;;;2.87;1.30;;;11.00;99.90;;;;;;5094672;28;20653;-83
2022/02/08 11:07:22;;;;;;;5.25;1.25;;;11.10;99.90;;;;;;5093073;28;20423;-84
2022/02/08 11:10:10;;;;;;;2.30;1.00;;;11.00;99.90;;;;;;5094045;28;20287;-90
2022/02/08 11:12:50;;;;;;;5.50;1.40;;;11.10;99.90;;;;;;5096077;28;20251;-81
2022/02/08 11:15:30;;;;;;;3.93;1.23;;;11.10;99.90;;;;;;5096481;28;20198;-83
2022/02/08 11:20:47;;;;;;;4.37;1.60;;;10.90;99.90;;;;;;5093018;28;20602;-85
2022/02/08 11:23:22;;;;;;;6.47;1.50;;;11.10;99.90;;;;;;5095464;28;20244;-83
2022/02/08 11:25:52;;;;;;;12.50;1.90;;;10.90;99.90;;;;;;5095633;28;20208;-79
2022/02/08 11:28:26;;;;;;;6.57;1.77;;;10.90;99.90;;;;;;5095285;28;20274;-80
2022/02/08 11:31:05;;;;;;;4.77;1.70;;;11.00;99.90;;;;;;5095088;28;20556;-82
2022/02/08 11:39:20;;;;;;;4.30;1.57;;;11.10;99.90;;;;;;5094305;28;20219;-84
2022/02/08 11:44:54;;;;;;;4.97;1.90;;;11.10;99.90;;;;;;5095523;28;20189;-81
2022/02/08 11:47:35;;;;;;;8.63;1.90;;;11.10;99.90;;;;;;5095153;28;20217;-82
2022/02/08 11:50:37;;;;;;;6.13;1.77;;;11.20;99.90;;;;;;5094370;28;20296;-83
2022/02/08 11:53:17;;;;;;;6.27;1.70;;;11.30;99.90;;;;;;5093868;28;20779;-80
2022/02/08 11:58:54;;;;;;;4.97;1.40;;;11.30;99.90;;;;;;5077753;28;20263;-80
2022/02/08 12:01:37;;;;;;;5.43;1.70;;;11.40;99.90;;;;;;5077162;28;20210;-83
2022/02/08 12:04:19;;;;;;;6.60;1.30;;;11.50;99.90;;;;;;5074185;28;20204;-83
2022/02/08 12:07:02;;;;;;;4.77;1.60;;;11.60;99.90;;;;;;5074261;28;20208;-81
2022/02/08 12:09:35;;;;;;;5.83;1.80;;;11.60;99.90;;;;;;5089777;28;20201;-86
2022/02/08 12:32:35;;;;;;;6.23;1.57;;;11.70;99.90;;;;;;5091254;28;20208;-85
2022/02/08 12:35:27;;;;;;;3.03;1.47;;;11.80;99.90;;;;;;5094969;28;20217;-87
2022/02/08 12:55:26;;;;;;;3.40;1.00;;;11.70;99.90;;;;;;5074209;28;20211;-86
2022/02/08 12:58:15;;;;;;;4.23;1.20;;;11.80;99.90;;;;;;5083218;28;20251;-86
2022/02/08 13:01:16;;;;;;;4.55;1.70;;;11.70;99.90;;;;;;5077759;28;20917;-89
2022/02/08 13:03:54;;;;;;;7.23;1.50;;;11.70;99.90;;;;;;5067947;28;20202;-85
2022/02/08 13:14:24;;;;;;;5.80;1.50;;;11.90;99.90;;;;;;5093186;28;20199;-86
2022/02/08 14:03:03;;;;;;;4.70;1.07;;;11.60;99.90;;;;;;5092087;28;20197;-81
2022/02/08 14:05:50;;;;;;;3.87;2.30;;;11.60;99.90;;;;;;5091884;28;20568;-80
2022/02/08 14:08:30;;;;;;;8.80;1.63;;;11.50;99.90;;;;;;5092195;28;20617;-85
2022/02/08 14:11:37;;;;;;;2.97;1.23;;;11.50;99.90;;;;;;5092904;28;20650;-80
2022/02/08 14:14:27;;;;;;;3.83;1.27;;;11.10;99.90;;;;;;5093085;28;20645;-81
2022/02/08 14:19:45;;;;;;;3.17;1.33;;;10.60;99.90;;;;;;5096850;28;20334;-81
2022/02/08 14:22:16;;;;;;;6.27;1.57;;;10.50;99.90;;;;;;5097095;28;20224;-80
2022/02/08 14:25:14;;;;;;;3.17;1.50;;;10.50;99.90;;;;;;5098040;28;20653;-84
2022/02/08 14:30:32;;;;;;;3.07;1.80;;;10.30;99.90;;;;;;5096866;28;20204;-85
2022/02/08 14:33:22;;;;;;;3.97;2.30;;;10.20;99.90;;;;;;5096315;28;20221;-90
2022/02/08 14:36:05;;;;;;;3.17;1.63;;;10.20;99.90;;;;;;5096989;28;20197;-80
2022/02/08 14:57:32;;;;;;;3.77;1.90;;;10.30;99.90;;;;;;5096932;28;20204;-89
2022/02/08 15:06:49;;;;;;;10.23;2.27;;;10.50;99.90;;;;;;5095780;28;20208;-84
2022/02/08 15:09:22;;;;;;;4.73;2.13;;;10.50;99.90;;;;;;5096068;28;20204;-81
2022/02/08 15:12:04;;;;;;;5.93;1.80;;;10.60;99.90;;;;;;5096042;28;20209;-83
2022/02/08 15:14:37;;;;;;;5.47;2.20;;;10.60;99.90;;;;;;5096155;28;20233;-83
2022/02/08 15:17:04;;;;;;;6.83;2.20;;;10.60;99.90;;;;;;5095872;28;20202;-81
2022/02/08 15:19:33;;;;;;;4.97;2.07;;;10.60;99.90;;;;;;5095673;28;20213;-82
2022/02/08 15:22:03;;;;;;;5.03;1.87;;;10.60;99.90;;;;;;5098730;28;20279;-85
2022/02/08 15:24:30;;;;;;;7.53;2.10;;;10.70;99.90;;;;;;5096198;28;20261;-81
2022/02/08 15:26:58;;;;;;;5.80;1.97;;;10.80;99.90;;;;;;5096777;28;20201;-80
2022/02/08 15:29:27;;;;;;;4.77;2.00;;;10.90;99.90;;;;;;5099050;28;20206;-84
2022/02/08 15:31:55;;;;;;;2.20;1.50;;;10.90;99.90;;;;;;5096586;28;20203;-81
2022/02/08 15:34:22;;;;;;;5.77;1.63;;;11.00;99.90;;;;;;5096297;28;20248;-83
2022/02/08 15:36:52;;;;;;;2.60;1.70;;;10.90;99.90;;;;;;5094359;28;20202;-82
2022/02/08 15:39:19;;;;;;;3.80;1.50;;;10.80;99.90;;;;;;5094889;28;20203;-81
2022/02/08 15:41:46;;;;;;;3.90;1.40;;;10.80;99.90;;;;;;5094533;28;20634;-87
2022/02/08 15:44:18;;;;;;;3.83;1.60;;;10.70;99.90;;;;;;5094838;28;20213;-83
2022/02/08 15:46:45;;;;;;;3.53;1.50;;;10.70;99.90;;;;;;5094809;28;20285;-82
2022/02/08 15:49:14;;;;;;;4.30;1.47;;;10.80;99.90;;;;;;5095133;28;20201;-82
2022/02/08 15:51:44;;;;;;;7.63;2.03;;;10.70;99.90;;;;;;5094047;28;20217;-83
2022/02/08 15:54:21;;;;;;;5.43;1.83;;;10.60;99.90;;;;;;5094412;28;20226;-83
2022/02/08 15:57:31;;;;;;;4.50;1.63;;;10.60;99.90;;;;;;5095154;28;20555;-83
2022/02/08 16:00:23;;;;;;;5.07;1.90;;;10.60;99.90;;;;;;5094370;28;20288;-80
2022/02/08 16:05:52;;;;;;;4.93;1.80;;;10.70;99.90;;;;;;5094723;28;20209;-82
2022/02/08 16:08:26;;;;;;;5.20;2.13;;;10.60;99.90;;;;;;5094256;28;20513;-78
2022/02/08 16:11:06;;;;;;;6.27;1.57;;;10.80;99.90;;;;;;5094798;28;20206;-84
2022/02/08 16:13:43;;;;;;;6.13;1.60;;;10.60;99.90;;;;;;5094435;28;20237;-79
2022/02/08 16:16:21;;;;;;;6.47;1.53;;;10.50;99.90;;;;;;5094787;28;20189;-80
2022/02/08 16:18:54;;;;;;;5.03;1.53;;;10.60;99.90;;;;;;5094808;28;20213;-81
2022/02/08 16:21:56;;;;;;;5.30;1.70;;;10.60;99.90;;;;;;5094327;28;20204;-78
2022/02/08 16:24:45;;;;;;;4.10;1.43;;;10.50;99.90;;;;;;5094475;28;20205;-88
2022/02/08 16:27:31;;;;;;;6.90;1.77;;;10.60;99.90;;;;;;5094066;28;20541;-87
2022/02/08 16:33:12;;;;;;;5.97;1.83;;;10.70;99.90;;;;;;5094119;28;20209;-82
2022/02/08 16:49:47;;;;;;;5.57;1.80;;;10.90;99.90;;;;;;5093562;28;20202;-83
2022/02/08 16:55:04;;;;;;;5.93;1.60;;;10.80;99.90;;;;;;5093932;28;20221;-78
2022/02/08 16:57:37;;;;;;;3.63;1.27;;;10.80;99.90;;;;;;5093856;28;20202;-80
2022/02/08 17:00:08;;;;;;;5.37;1.63;;;10.80;99.90;;;;;;5096607;28;20244;-82
2022/02/08 17:02:38;;;;;;;3.87;1.77;;;10.80;99.90;;;;;;5093503;28;20613;-79
2022/02/08 17:05:07;;;;;;;4.20;1.70;;;10.80;99.90;;;;;;5093833;28;20208;-84
2022/02/08 17:07:38;;;;;;;3.87;1.83;;;10.90;99.90;;;;;;5095844;28;20678;-82
2022/02/08 17:10:11;;;;;;;2.70;1.40;;;10.90;99.90;;;;;;5095064;28;20191;-83
2022/02/08 17:12:45;;;;;;;3.43;1.30;;;10.80;99.90;;;;;;5093003;28;20229;-85
2022/02/08 17:15:38;;;;;;;2.23;1.40;;;10.80;99.90;;;;;;5093472;28;20233;-89
2022/02/08 17:34:35;;;;;;;6.87;1.70;;;10.90;99.90;;;;;;5089398;28;20225;-80
2022/02/08 17:48:17;;;;;;;4.53;1.63;;;10.60;99.90;;;;;;5112007;28;20185;-82
2022/02/08 17:50:47;;;;;;;5.30;1.97;;;10.60;99.90;;;;;;5114321;28;20189;-82
2022/02/08 17:58:49;;;;;;;4.13;2.50;;;10.60;99.90;;;;;;5111015;28;20438;-81
2022/02/08 18:01:19;;;;;;;3.00;2.20;;;10.60;99.90;;;;;;5103666;28;20199;-81
2022/02/08 18:03:50;;;;;;;3.53;2.30;;;10.60;99.90;;;;;;5115295;27;20201;-80